sensor_id;sensor_type;location;lat;lon;timestamp;pressure;altitude;pressure_sealevel;temperature;humidity
7668;BME280;3876;42.204;24.686;2022-07-23T00:01:56;99531.66;;;25.61;61.50
7668;BME280;3876;42.204;24.686;2022-07-23T00:04:22;99528.31;;;25.59;61.51
7668;BME280;3876;42.204;24.686;2022-07-23T00:06:49;99529.59;;;25.55;62.42
7668;BME280;3876;42.204;24.686;2022-07-23T00:09:16;99531.66;;;25.51;62.23
7668;BME280;3876;42.204;24.686;2022-07-23T00:11:43;99531.06;;;25.48;62.61
7668;BME280;3876;42.204;24.686;2022-07-23T00:14:09;99533.25;;;25.43;62.63
7668;BME280;3876;42.204;24.686;2022-07-23T00:16:36;99533.53;;;25.40;62.77
7668;BME280;3876;42.204;24.686;2022-07-23T00:19:04;99525.25;;;25.35;62.99
7668;BME280;3876;42.204;24.686;2022-07-23T00:21:31;99530.63;;;25.33;62.50
7668;BME280;3876;42.204;24.686;2022-07-23T00:23:58;99527.47;;;25.30;62.51
7668;BME280;3876;42.204;24.686;2022-07-23T00:26:25;99527.59;;;25.28;63.18
7668;BME280;3876;42.204;24.686;2022-07-23T00:28:52;99528.81;;;25.24;63.00
7668;BME280;3876;42.204;24.686;2022-07-23T00:31:18;99529.94;;;25.22;63.68
7668;BME280;3876;42.204;24.686;2022-07-23T00:33:45;99529.38;;;25.18;64.09
7668;BME280;3876;42.204;24.686;2022-07-23T00:36:13;99526.91;;;25.17;64.33
7668;BME280;3876;42.204;24.686;2022-07-23T00:38:40;99534.06;;;25.15;64.36
7668;BME280;3876;42.204;24.686;2022-07-23T00:41:07;99538.63;;;25.13;64.86
7668;BME280;3876;42.204;24.686;2022-07-23T00:43:34;99535.69;;;24.96;65.18
7668;BME280;3876;42.204;24.686;2022-07-23T00:46:01;99528.19;;;24.92;64.85
7668;BME280;3876;42.204;24.686;2022-07-23T00:48:28;99526.00;;;24.87;64.47
7668;BME280;3876;42.204;24.686;2022-07-23T00:50:54;99537.44;;;24.86;65.26
7668;BME280;3876;42.204;24.686;2022-07-23T00:53:23;99531.75;;;24.81;64.85
7668;BME280;3876;42.204;24.686;2022-07-23T00:55:50;99532.97;;;24.77;63.95
7668;BME280;3876;42.204;24.686;2022-07-23T00:58:17;99531.44;;;24.75;64.03
7668;BME280;3876;42.204;24.686;2022-07-23T01:00:45;99527.28;;;24.72;63.94
7668;BME280;3876;42.204;24.686;2022-07-23T01:03:12;99529.09;;;24.72;64.04
7668;BME280;3876;42.204;24.686;2022-07-23T01:05:39;99522.28;;;24.69;64.08
7668;BME280;3876;42.204;24.686;2022-07-23T01:08:06;99531.13;;;24.68;64.21
7668;BME280;3876;42.204;24.686;2022-07-23T01:10:34;99535.56;;;24.68;64.19
7668;BME280;3876;42.204;24.686;2022-07-23T01:13:03;99524.50;;;24.64;64.81
7668;BME280;3876;42.204;24.686;2022-07-23T01:15:30;99532.47;;;24.63;64.57
7668;BME280;3876;42.204;24.686;2022-07-23T01:17:57;99527.66;;;24.58;64.99
7668;BME280;3876;42.204;24.686;2022-07-23T01:20:23;99531.47;;;24.54;65.10
7668;BME280;3876;42.204;24.686;2022-07-23T01:22:52;99534.38;;;24.51;65.51
7668;BME280;3876;42.204;24.686;2022-07-23T01:25:19;99530.22;;;24.48;65.85
7668;BME280;3876;42.204;24.686;2022-07-23T01:27:47;99537.25;;;24.48;65.98
7668;BME280;3876;42.204;24.686;2022-07-23T01:30:14;99536.00;;;24.42;66.16
7668;BME280;3876;42.204;24.686;2022-07-23T01:32:42;99534.59;;;24.38;66.70
7668;BME280;3876;42.204;24.686;2022-07-23T01:35:09;99534.00;;;24.35;67.03
7668;BME280;3876;42.204;24.686;2022-07-23T01:37:36;99530.69;;;24.33;67.36
7668;BME280;3876;42.204;24.686;2022-07-23T01:40:06;99503.56;;;24.13;67.71
7668;BME280;3876;42.204;24.686;2022-07-23T01:42:33;99524.56;;;24.23;68.17
7668;BME280;3876;42.204;24.686;2022-07-23T01:45:02;99527.44;;;24.20;68.95
7668;BME280;3876;42.204;24.686;2022-07-23T01:47:29;99532.72;;;24.09;70.23
7668;BME280;3876;42.204;24.686;2022-07-23T01:49:56;99523.72;;;24.01;70.56
7668;BME280;3876;42.204;24.686;2022-07-23T01:52:23;99528.50;;;23.96;72.31
7668;BME280;3876;42.204;24.686;2022-07-23T01:54:50;99528.78;;;23.93;72.88
7668;BME280;3876;42.204;24.686;2022-07-23T01:57:18;99529.03;;;23.90;72.62
7668;BME280;3876;42.204;24.686;2022-07-23T01:59:45;99529.28;;;23.87;73.06
7668;BME280;3876;42.204;24.686;2022-07-23T02:02:11;99518.22;;;23.84;73.32
7668;BME280;3876;42.204;24.686;2022-07-23T02:04:38;99525.34;;;23.82;73.21
7668;BME280;3876;42.204;24.686;2022-07-23T02:07:05;99515.13;;;23.79;72.93
7668;BME280;3876;42.204;24.686;2022-07-23T02:09:33;99519.78;;;23.75;73.17
7668;BME280;3876;42.204;24.686;2022-07-23T02:12:00;99517.31;;;23.74;73.36
7668;BME280;3876;42.204;24.686;2022-07-23T02:14:28;99519.63;;;23.67;74.26
7668;BME280;3876;42.204;24.686;2022-07-23T02:16:55;99517.50;;;23.61;74.04
7668;BME280;3876;42.204;24.686;2022-07-23T02:19:22;99517.63;;;23.60;74.01
7668;BME280;3876;42.204;24.686;2022-07-23T02:21:49;99524.88;;;23.56;74.24
7668;BME280;3876;42.204;24.686;2022-07-23T02:24:16;99512.44;;;23.48;74.39
7668;BME280;3876;42.204;24.686;2022-07-23T02:26:43;99507.09;;;23.39;74.19
7668;BME280;3876;42.204;24.686;2022-07-23T02:29:10;99516.72;;;23.38;74.41
7668;BME280;3876;42.204;24.686;2022-07-23T02:31:38;99513.03;;;23.30;74.71
7668;BME280;3876;42.204;24.686;2022-07-23T02:34:05;99520.44;;;23.25;74.84
7668;BME280;3876;42.204;24.686;2022-07-23T02:36:32;99518.56;;;23.16;73.94
7668;BME280;3876;42.204;24.686;2022-07-23T02:38:59;99518.72;;;23.03;73.08
7668;BME280;3876;42.204;24.686;2022-07-23T02:41:26;99521.34;;;23.03;72.91
7668;BME280;3876;42.204;24.686;2022-07-23T02:43:53;99527.63;;;23.00;72.54
7668;BME280;3876;42.204;24.686;2022-07-23T02:46:20;99530.84;;;22.93;72.53
7668;BME280;3876;42.204;24.686;2022-07-23T02:48:48;99530.03;;;22.92;72.06
7668;BME280;3876;42.204;24.686;2022-07-23T02:51:15;99530.84;;;22.93;72.23
7668;BME280;3876;42.204;24.686;2022-07-23T02:53:41;99536.91;;;22.93;72.17
7668;BME280;3876;42.204;24.686;2022-07-23T02:56:08;99535.00;;;22.95;71.65
7668;BME280;3876;42.204;24.686;2022-07-23T02:58:35;99532.63;;;22.92;71.47
7668;BME280;3876;42.204;24.686;2022-07-23T03:01:02;99542.59;;;22.98;71.45
7668;BME280;3876;42.204;24.686;2022-07-23T03:03:29;99536.44;;;22.99;70.82
7668;BME280;3876;42.204;24.686;2022-07-23T03:05:57;99542.50;;;23.00;70.63
7668;BME280;3876;42.204;24.686;2022-07-23T03:08:24;99534.75;;;22.98;70.72
7668;BME280;3876;42.204;24.686;2022-07-23T03:10:51;99540.22;;;22.95;70.53
7668;BME280;3876;42.204;24.686;2022-07-23T03:13:17;99543.94;;;22.93;70.58
7668;BME280;3876;42.204;24.686;2022-07-23T03:15:44;99541.66;;;22.88;70.46
7668;BME280;3876;42.204;24.686;2022-07-23T03:18:11;99545.13;;;22.89;70.63
7668;BME280;3876;42.204;24.686;2022-07-23T03:20:38;99535.50;;;22.89;70.07
7668;BME280;3876;42.204;24.686;2022-07-23T03:23:06;99547.38;;;22.93;70.30
7668;BME280;3876;42.204;24.686;2022-07-23T03:25:33;99554.16;;;22.96;70.30
7668;BME280;3876;42.204;24.686;2022-07-23T03:28:00;99559.00;;;23.00;70.06
7668;BME280;3876;42.204;24.686;2022-07-23T03:30:26;99551.88;;;23.02;69.81
7668;BME280;3876;42.204;24.686;2022-07-23T03:32:53;99551.16;;;23.00;69.86
7668;BME280;3876;42.204;24.686;2022-07-23T03:35:20;99556.88;;;23.06;69.93
7668;BME280;3876;42.204;24.686;2022-07-23T03:37:47;99551.38;;;23.09;69.58
7668;BME280;3876;42.204;24.686;2022-07-23T03:40:15;99554.00;;;23.09;69.40
7668;BME280;3876;42.204;24.686;2022-07-23T03:42:42;99555.19;;;23.05;69.28
7668;BME280;3876;42.204;24.686;2022-07-23T03:45:11;99559.03;;;22.89;69.43
7668;BME280;3876;42.204;24.686;2022-07-23T03:47:38;99553.31;;;22.84;69.90
7668;BME280;3876;42.204;24.686;2022-07-23T03:50:06;99562.56;;;22.88;70.40
7668;BME280;3876;42.204;24.686;2022-07-23T03:52:33;99557.13;;;22.80;70.04
7668;BME280;3876;42.204;24.686;2022-07-23T03:55:00;99556.88;;;22.83;70.05
7668;BME280;3876;42.204;24.686;2022-07-23T03:57:28;99551.41;;;22.86;70.02
7668;BME280;3876;42.204;24.686;2022-07-23T03:59:55;99546.19;;;22.86;70.48
7668;BME280;3876;42.204;24.686;2022-07-23T04:02:22;99551.88;;;23.02;70.23
7668;BME280;3876;42.204;24.686;2022-07-23T04:04:49;99554.47;;;23.14;70.13
7668;BME280;3876;42.204;24.686;2022-07-23T04:07:16;99552.78;;;23.24;69.53
7668;BME280;3876;42.204;24.686;2022-07-23T04:09:43;99547.53;;;23.35;69.56
7668;BME280;3876;42.204;24.686;2022-07-23T04:12:10;99552.97;;;23.54;68.95
7668;BME280;3876;42.204;24.686;2022-07-23T04:14:38;99555.53;;;23.65;67.61
7668;BME280;3876;42.204;24.686;2022-07-23T04:17:05;99559.41;;;23.82;66.91
7668;BME280;3876;42.204;24.686;2022-07-23T04:19:32;99563.50;;;23.95;66.44
7668;BME280;3876;42.204;24.686;2022-07-23T04:21:59;99558.91;;;24.09;64.86
7668;BME280;3876;42.204;24.686;2022-07-23T04:24:25;99563.41;;;24.18;64.75
7668;BME280;3876;42.204;24.686;2022-07-23T04:26:52;99558.81;;;24.31;64.54
7668;BME280;3876;42.204;24.686;2022-07-23T04:29:19;99561.09;;;24.45;64.40
7668;BME280;3876;42.204;24.686;2022-07-23T04:31:47;99561.72;;;24.58;63.76
7668;BME280;3876;42.204;24.686;2022-07-23T04:34:14;99558.47;;;24.75;63.60
7668;BME280;3876;42.204;24.686;2022-07-23T04:36:41;99560.50;;;24.92;63.65
7668;BME280;3876;42.204;24.686;2022-07-23T04:39:08;99560.53;;;25.02;63.26
7668;BME280;3876;42.204;24.686;2022-07-23T04:41:35;99548.41;;;25.11;62.67
7668;BME280;3876;42.204;24.686;2022-07-23T04:44:02;99562.28;;;25.32;62.43
7668;BME280;3876;42.204;24.686;2022-07-23T04:46:29;99564.94;;;25.51;61.88
7668;BME280;3876;42.204;24.686;2022-07-23T04:48:57;99560.66;;;25.69;62.51
7668;BME280;3876;42.204;24.686;2022-07-23T04:51:24;99564.56;;;25.84;61.56
7668;BME280;3876;42.204;24.686;2022-07-23T04:53:51;99564.25;;;26.06;61.46
7668;BME280;3876;42.204;24.686;2022-07-23T04:56:18;99567.16;;;26.23;59.48
7668;BME280;3876;42.204;24.686;2022-07-23T04:58:44;99565.06;;;26.36;59.58
7668;BME280;3876;42.204;24.686;2022-07-23T05:01:11;99557.78;;;26.57;58.84
7668;BME280;3876;42.204;24.686;2022-07-23T05:03:38;99557.47;;;26.70;58.14
7668;BME280;3876;42.204;24.686;2022-07-23T05:06:06;99565.19;;;26.90;57.79
7668;BME280;3876;42.204;24.686;2022-07-23T05:08:33;99567.72;;;27.09;58.18
7668;BME280;3876;42.204;24.686;2022-07-23T05:11:00;99563.47;;;27.26;57.50
7668;BME280;3876;42.204;24.686;2022-07-23T05:13:27;99559.91;;;27.45;56.70
7668;BME280;3876;42.204;24.686;2022-07-23T05:15:54;99560.34;;;27.58;56.85
7668;BME280;3876;42.204;24.686;2022-07-23T05:18:21;99552.72;;;27.73;54.95
7668;BME280;3876;42.204;24.686;2022-07-23T05:20:47;99560.03;;;27.96;54.28
7668;BME280;3876;42.204;24.686;2022-07-23T05:23:16;99564.31;;;28.15;54.66
7668;BME280;3876;42.204;24.686;2022-07-23T05:25:42;99564.63;;;28.38;54.70
7668;BME280;3876;42.204;24.686;2022-07-23T05:28:09;99563.13;;;28.61;54.10
7668;BME280;3876;42.204;24.686;2022-07-23T05:30:36;99566.38;;;28.81;54.08
7668;BME280;3876;42.204;24.686;2022-07-23T05:33:03;99554.94;;;29.06;54.49
7668;BME280;3876;42.204;24.686;2022-07-23T05:35:30;99555.31;;;29.19;53.83
7668;BME280;3876;42.204;24.686;2022-07-23T05:37:56;99562.00;;;29.39;51.89
7668;BME280;3876;42.204;24.686;2022-07-23T05:40:25;99553.94;;;29.49;52.12
7668;BME280;3876;42.204;24.686;2022-07-23T05:42:51;99548.97;;;29.54;51.02
7668;BME280;3876;42.204;24.686;2022-07-23T05:45:18;99555.09;;;29.70;52.55
7668;BME280;3876;42.204;24.686;2022-07-23T05:47:46;99559.91;;;29.83;50.55
7668;BME280;3876;42.204;24.686;2022-07-23T05:50:14;99559.59;;;29.94;50.85
7668;BME280;3876;42.204;24.686;2022-07-23T05:52:42;99557.78;;;30.11;50.86
7668;BME280;3876;42.204;24.686;2022-07-23T05:55:10;99563.19;;;30.34;49.01
7668;BME280;3876;42.204;24.686;2022-07-23T05:57:40;99565.50;;;30.53;49.74
7668;BME280;3876;42.204;24.686;2022-07-23T06:00:09;99565.41;;;30.77;48.87
7668;BME280;3876;42.204;24.686;2022-07-23T06:02:37;99536.63;;;30.82;47.98
7668;BME280;3876;42.204;24.686;2022-07-23T06:05:05;99560.63;;;31.19;47.31
7668;BME280;3876;42.204;24.686;2022-07-23T06:07:33;99560.53;;;31.36;46.81
7668;BME280;3876;42.204;24.686;2022-07-23T06:09:59;99562.19;;;31.37;45.01
7668;BME280;3876;42.204;24.686;2022-07-23T06:12:26;99554.16;;;31.45;46.63
7668;BME280;3876;42.204;24.686;2022-07-23T06:14:55;99559.69;;;31.66;46.23
7668;BME280;3876;42.204;24.686;2022-07-23T06:17:22;99543.34;;;31.77;45.45
7668;BME280;3876;42.204;24.686;2022-07-23T06:19:48;99557.25;;;32.02;42.47
7668;BME280;3876;42.204;24.686;2022-07-23T06:22:15;99562.34;;;32.11;42.13
7668;BME280;3876;42.204;24.686;2022-07-23T06:24:42;99562.53;;;32.24;42.23
7668;BME280;3876;42.204;24.686;2022-07-23T06:27:09;99566.03;;;32.40;40.78
7668;BME280;3876;42.204;24.686;2022-07-23T06:29:36;99559.34;;;32.29;41.96
7668;BME280;3876;42.204;24.686;2022-07-23T06:32:04;99558.63;;;32.50;40.55
7668;BME280;3876;42.204;24.686;2022-07-23T06:34:31;99563.59;;;32.67;38.07
7668;BME280;3876;42.204;24.686;2022-07-23T06:36:58;99566.88;;;32.84;38.72
7668;BME280;3876;42.204;24.686;2022-07-23T06:39:25;99564.31;;;32.91;39.50
7668;BME280;3876;42.204;24.686;2022-07-23T06:41:52;99561.66;;;33.05;40.04
7668;BME280;3876;42.204;24.686;2022-07-23T06:44:19;99554.66;;;33.19;38.92
7668;BME280;3876;42.204;24.686;2022-07-23T06:46:46;99555.84;;;33.31;39.84
7668;BME280;3876;42.204;24.686;2022-07-23T06:49:14;99546.91;;;33.39;38.78
7668;BME280;3876;42.204;24.686;2022-07-23T06:51:41;99549.59;;;33.60;40.89
7668;BME280;3876;42.204;24.686;2022-07-23T06:54:07;99550.13;;;33.70;39.08
7668;BME280;3876;42.204;24.686;2022-07-23T06:56:34;99542.56;;;33.73;38.85
7668;BME280;3876;42.204;24.686;2022-07-23T06:59:01;99540.06;;;33.93;39.39
7668;BME280;3876;42.204;24.686;2022-07-23T07:01:28;99541.72;;;33.94;40.27
7668;BME280;3876;42.204;24.686;2022-07-23T07:03:55;99549.13;;;33.99;37.98
7668;BME280;3876;42.204;24.686;2022-07-23T07:06:23;99544.81;;;33.98;38.50
7668;BME280;3876;42.204;24.686;2022-07-23T07:08:50;99541.44;;;34.10;37.63
7668;BME280;3876;42.204;24.686;2022-07-23T07:11:17;99544.84;;;34.25;36.83
7668;BME280;3876;42.204;24.686;2022-07-23T07:13:44;99552.31;;;34.37;35.94
7668;BME280;3876;42.204;24.686;2022-07-23T07:16:11;99543.78;;;34.54;34.90
7668;BME280;3876;42.204;24.686;2022-07-23T07:18:37;99544.22;;;34.58;34.60
7668;BME280;3876;42.204;24.686;2022-07-23T07:21:04;99533.66;;;34.71;35.12
7668;BME280;3876;42.204;24.686;2022-07-23T07:23:33;99546.91;;;34.92;34.79
7668;BME280;3876;42.204;24.686;2022-07-23T07:26:00;99530.59;;;35.15;33.32
7668;BME280;3876;42.204;24.686;2022-07-23T07:28:26;99534.13;;;35.48;34.65
7668;BME280;3876;42.204;24.686;2022-07-23T07:30:53;99535.00;;;35.62;32.68
7668;BME280;3876;42.204;24.686;2022-07-23T07:33:20;99531.94;;;35.71;33.06
7668;BME280;3876;42.204;24.686;2022-07-23T07:35:47;99531.13;;;35.97;33.52
7668;BME280;3876;42.204;24.686;2022-07-23T07:38:14;99518.44;;;36.06;32.86
7668;BME280;3876;42.204;24.686;2022-07-23T07:40:42;99528.66;;;36.28;32.98
7668;BME280;3876;42.204;24.686;2022-07-23T07:43:09;99525.72;;;36.50;34.09
7668;BME280;3876;42.204;24.686;2022-07-23T07:45:36;99529.00;;;36.52;33.33
7668;BME280;3876;42.204;24.686;2022-07-23T07:48:03;99512.97;;;36.58;33.33
7668;BME280;3876;42.204;24.686;2022-07-23T07:50:30;99525.22;;;36.86;32.43
7668;BME280;3876;42.204;24.686;2022-07-23T07:52:57;99520.44;;;36.94;32.37
7668;BME280;3876;42.204;24.686;2022-07-23T07:55:24;99515.31;;;36.93;33.34
7668;BME280;3876;42.204;24.686;2022-07-23T07:57:53;99518.50;;;37.14;32.01
7668;BME280;3876;42.204;24.686;2022-07-23T08:00:20;99518.56;;;37.08;31.53
7668;BME280;3876;42.204;24.686;2022-07-23T08:02:48;99511.53;;;37.13;31.32
7668;BME280;3876;42.204;24.686;2022-07-23T08:05:19;99513.00;;;37.41;30.81
7668;BME280;3876;42.204;24.686;2022-07-23T08:07:46;99507.16;;;37.57;32.99
7668;BME280;3876;42.204;24.686;2022-07-23T08:10:13;99509.06;;;37.74;33.04
7668;BME280;3876;42.204;24.686;2022-07-23T08:12:41;99512.28;;;37.83;32.60
7668;BME280;3876;42.204;24.686;2022-07-23T08:15:12;99508.47;;;37.97;31.06
7668;BME280;3876;42.204;24.686;2022-07-23T08:17:39;99510.78;;;37.87;29.21
7668;BME280;3876;42.204;24.686;2022-07-23T08:20:08;99498.97;;;37.76;29.48
7668;BME280;3876;42.204;24.686;2022-07-23T08:22:42;99497.84;;;37.84;30.93
7668;BME280;3876;42.204;24.686;2022-07-23T08:25:09;99492.34;;;38.04;30.36
7668;BME280;3876;42.204;24.686;2022-07-23T08:27:36;99495.25;;;38.02;29.32
7668;BME280;3876;42.204;24.686;2022-07-23T08:30:04;99491.09;;;38.06;30.13
7668;BME280;3876;42.204;24.686;2022-07-23T08:32:32;99490.19;;;38.37;30.29
7668;BME280;3876;42.204;24.686;2022-07-23T08:34:59;99488.00;;;38.27;28.29
7668;BME280;3876;42.204;24.686;2022-07-23T08:37:26;99485.00;;;38.35;27.77
7668;BME280;3876;42.204;24.686;2022-07-23T08:39:52;99487.84;;;38.59;29.59
7668;BME280;3876;42.204;24.686;2022-07-23T08:42:21;99481.28;;;38.73;29.75
7668;BME280;3876;42.204;24.686;2022-07-23T08:44:48;99472.94;;;38.81;29.63
7668;BME280;3876;42.204;24.686;2022-07-23T08:47:15;99487.59;;;38.97;27.58
7668;BME280;3876;42.204;24.686;2022-07-23T08:49:44;99471.84;;;39.00;28.61
7668;BME280;3876;42.204;24.686;2022-07-23T08:52:12;99484.78;;;39.21;27.88
7668;BME280;3876;42.204;24.686;2022-07-23T08:54:40;99478.69;;;39.14;27.72
7668;BME280;3876;42.204;24.686;2022-07-23T08:57:07;99466.94;;;38.97;30.39
7668;BME280;3876;42.204;24.686;2022-07-23T08:59:33;99474.50;;;39.18;28.55
7668;BME280;3876;42.204;24.686;2022-07-23T09:02:00;99469.97;;;39.19;26.40
7668;BME280;3876;42.204;24.686;2022-07-23T09:04:27;99470.78;;;39.19;28.10
7668;BME280;3876;42.204;24.686;2022-07-23T09:06:56;99475.63;;;39.29;27.38
7668;BME280;3876;42.204;24.686;2022-07-23T09:09:23;99473.66;;;39.48;26.68
7668;BME280;3876;42.204;24.686;2022-07-23T09:12:05;99466.50;;;39.00;24.90
7668;BME280;3876;42.204;24.686;2022-07-23T09:14:37;99472.47;;;38.54;25.57
7668;BME280;3876;42.204;24.686;2022-07-23T09:17:11;99477.84;;;38.84;29.50
7668;BME280;3876;42.204;24.686;2022-07-23T09:19:38;99465.69;;;39.00;27.95
7668;BME280;3876;42.204;24.686;2022-07-23T09:22:23;99464.22;;;39.15;26.48
7668;BME280;3876;42.204;24.686;2022-07-23T09:25:13;99459.75;;;39.39;27.41
7668;BME280;3876;42.204;24.686;2022-07-23T09:27:50;99465.06;;;39.69;25.64
7668;BME280;3876;42.204;24.686;2022-07-23T09:30:18;99457.38;;;39.84;26.93
7668;BME280;3876;42.204;24.686;2022-07-23T09:33:07;99456.66;;;39.88;24.04
7668;BME280;3876;42.204;24.686;2022-07-23T09:35:46;99452.44;;;40.04;24.93
7668;BME280;3876;42.204;24.686;2022-07-23T09:38:15;99450.84;;;39.80;24.29
7668;BME280;3876;42.204;24.686;2022-07-23T09:40:43;99434.09;;;39.43;23.62
7668;BME280;3876;42.204;24.686;2022-07-23T09:43:11;99439.94;;;39.63;25.22
7668;BME280;3876;42.204;24.686;2022-07-23T09:45:38;99441.97;;;39.68;26.39
7668;BME280;3876;42.204;24.686;2022-07-23T09:48:12;99445.34;;;39.75;24.78
7668;BME280;3876;42.204;24.686;2022-07-23T09:50:40;99442.19;;;39.90;25.07
7668;BME280;3876;42.204;24.686;2022-07-23T09:53:07;99441.38;;;40.12;23.64
7668;BME280;3876;42.204;24.686;2022-07-23T09:55:36;99437.41;;;40.15;25.80
7668;BME280;3876;42.204;24.686;2022-07-23T09:58:05;99435.84;;;40.30;24.99
7668;BME280;3876;42.204;24.686;2022-07-23T10:00:34;99431.66;;;40.23;22.83
7668;BME280;3876;42.204;24.686;2022-07-23T10:03:03;99436.19;;;40.34;24.44
7668;BME280;3876;42.204;24.686;2022-07-23T10:05:33;99430.94;;;40.39;23.25
7668;BME280;3876;42.204;24.686;2022-07-23T10:08:01;99431.59;;;40.58;25.79
7668;BME280;3876;42.204;24.686;2022-07-23T10:10:30;99434.75;;;40.55;22.52
7668;BME280;3876;42.204;24.686;2022-07-23T10:12:59;99422.44;;;40.19;22.49
7668;BME280;3876;42.204;24.686;2022-07-23T10:15:58;99432.59;;;39.59;22.83
7668;BME280;3876;42.204;24.686;2022-07-23T10:18:26;99418.03;;;39.13;23.00
7668;BME280;3876;42.204;24.686;2022-07-23T10:20:53;99415.41;;;39.25;24.49
7668;BME280;3876;42.204;24.686;2022-07-23T10:23:26;99420.59;;;39.61;27.76
7668;BME280;3876;42.204;24.686;2022-07-23T10:25:59;99418.16;;;39.83;25.52
7668;BME280;3876;42.204;24.686;2022-07-23T10:28:46;99413.69;;;40.00;24.52
7668;BME280;3876;42.204;24.686;2022-07-23T10:31:25;99406.91;;;40.09;25.02
7668;BME280;3876;42.204;24.686;2022-07-23T10:33:58;99410.19;;;40.23;23.48
7668;BME280;3876;42.204;24.686;2022-07-23T10:36:32;99408.63;;;40.27;22.28
7668;BME280;3876;42.204;24.686;2022-07-23T10:39:06;99402.44;;;40.26;23.53
7668;BME280;3876;42.204;24.686;2022-07-23T10:41:36;99398.63;;;40.51;24.19
7668;BME280;3876;42.204;24.686;2022-07-23T10:44:11;99385.97;;;40.63;23.66
7668;BME280;3876;42.204;24.686;2022-07-23T10:46:56;99387.47;;;40.70;22.70
7668;BME280;3876;42.204;24.686;2022-07-23T10:49:41;99393.50;;;40.77;23.36
7668;BME280;3876;42.204;24.686;2022-07-23T10:52:25;99383.41;;;40.84;23.94
7668;BME280;3876;42.204;24.686;2022-07-23T10:54:54;99380.78;;;40.73;22.80
7668;BME280;3876;42.204;24.686;2022-07-23T10:57:25;99379.28;;;40.65;23.45
7668;BME280;3876;42.204;24.686;2022-07-23T11:00:20;99381.34;;;40.47;22.54
7668;BME280;3876;42.204;24.686;2022-07-23T11:02:48;99369.81;;;40.34;22.42
7668;BME280;3876;42.204;24.686;2022-07-23T11:05:16;99373.03;;;40.08;23.90
7668;BME280;3876;42.204;24.686;2022-07-23T11:08:12;99367.78;;;40.02;23.54
7668;BME280;3876;42.204;24.686;2022-07-23T11:10:43;99366.50;;;40.04;24.49
7668;BME280;3876;42.204;24.686;2022-07-23T11:16:25;99354.56;;;40.23;23.10
7668;BME280;3876;42.204;24.686;2022-07-23T11:19:06;99360.94;;;40.34;23.73
7668;BME280;3876;42.204;24.686;2022-07-23T11:21:53;99348.81;;;40.31;22.70
7668;BME280;3876;42.204;24.686;2022-07-23T11:24:23;99345.72;;;40.11;22.98
7668;BME280;3876;42.204;24.686;2022-07-23T11:26:53;99343.19;;;40.33;24.05
7668;BME280;3876;42.204;24.686;2022-07-23T11:29:45;99348.97;;;40.13;21.66
7668;BME280;3876;42.204;24.686;2022-07-23T11:32:30;99351.72;;;39.90;22.22
7668;BME280;3876;42.204;24.686;2022-07-23T11:34:59;99347.88;;;39.86;21.89
7668;BME280;3876;42.204;24.686;2022-07-23T11:37:33;99338.63;;;39.94;22.85
7668;BME280;3876;42.204;24.686;2022-07-23T11:40:05;99340.78;;;40.20;23.72
7668;BME280;3876;42.204;24.686;2022-07-23T11:42:34;99332.50;;;40.21;22.35
7668;BME280;3876;42.204;24.686;2022-07-23T11:45:02;99335.91;;;40.05;22.29
7668;BME280;3876;42.204;24.686;2022-07-23T11:47:31;99328.91;;;40.04;21.65
7668;BME280;3876;42.204;24.686;2022-07-23T11:50:00;99329.97;;;40.03;23.11
7668;BME280;3876;42.204;24.686;2022-07-23T11:52:28;99333.25;;;40.33;22.77
7668;BME280;3876;42.204;24.686;2022-07-23T11:54:57;99330.97;;;40.54;23.76
7668;BME280;3876;42.204;24.686;2022-07-23T11:57:26;99323.75;;;40.71;23.88
7668;BME280;3876;42.204;24.686;2022-07-23T11:59:55;99330.91;;;40.82;22.65
7668;BME280;3876;42.204;24.686;2022-07-23T12:02:22;99310.63;;;40.58;22.06
7668;BME280;3876;42.204;24.686;2022-07-23T12:04:52;99324.78;;;40.53;22.01
7668;BME280;3876;42.204;24.686;2022-07-23T12:07:27;99322.44;;;40.57;22.30
7668;BME280;3876;42.204;24.686;2022-07-23T12:09:55;99304.66;;;40.56;23.06
7668;BME280;3876;42.204;24.686;2022-07-23T12:12:22;99289.47;;;40.50;22.44
7668;BME280;3876;42.204;24.686;2022-07-23T12:14:51;99319.63;;;40.52;22.99
7668;BME280;3876;42.204;24.686;2022-07-23T12:17:19;99313.53;;;40.28;21.90
7668;BME280;3876;42.204;24.686;2022-07-23T12:19:47;99290.56;;;40.20;22.03
7668;BME280;3876;42.204;24.686;2022-07-23T12:22:16;99304.63;;;40.39;22.68
7668;BME280;3876;42.204;24.686;2022-07-23T12:24:53;99288.00;;;40.25;21.80
7668;BME280;3876;42.204;24.686;2022-07-23T12:27:20;99291.91;;;40.34;21.99
7668;BME280;3876;42.204;24.686;2022-07-23T12:29:48;99282.94;;;40.46;23.42
7668;BME280;3876;42.204;24.686;2022-07-23T12:32:19;99276.69;;;40.40;22.80
7668;BME280;3876;42.204;24.686;2022-07-23T12:34:48;99282.81;;;40.35;22.48
7668;BME280;3876;42.204;24.686;2022-07-23T12:37:28;99277.53;;;40.12;21.40
7668;BME280;3876;42.204;24.686;2022-07-23T12:39:55;99274.56;;;40.25;22.39
7668;BME280;3876;42.204;24.686;2022-07-23T12:42:22;99274.16;;;40.33;23.29
7668;BME280;3876;42.204;24.686;2022-07-23T12:45:09;99271.75;;;40.49;24.17
7668;BME280;3876;42.204;24.686;2022-07-23T12:47:58;99265.88;;;40.52;22.53
7668;BME280;3876;42.204;24.686;2022-07-23T12:50:50;99271.13;;;40.58;22.00
7668;BME280;3876;42.204;24.686;2022-07-23T12:53:21;99265.22;;;40.45;21.73
7668;BME280;3876;42.204;24.686;2022-07-23T12:55:49;99253.97;;;40.48;23.26
7668;BME280;3876;42.204;24.686;2022-07-23T12:58:18;99248.81;;;40.58;23.03
7668;BME280;3876;42.204;24.686;2022-07-23T13:01:03;99263.47;;;40.67;23.00
7668;BME280;3876;42.204;24.686;2022-07-23T13:03:35;99248.00;;;40.57;22.70
7668;BME280;3876;42.204;24.686;2022-07-23T13:06:05;99242.97;;;40.32;21.83
7668;BME280;3876;42.204;24.686;2022-07-23T13:08:34;99244.84;;;40.32;22.19
7668;BME280;3876;42.204;24.686;2022-07-23T13:11:01;99243.78;;;40.16;22.17
7668;BME280;3876;42.204;24.686;2022-07-23T13:13:32;99240.75;;;40.29;23.48
7668;BME280;3876;42.204;24.686;2022-07-23T13:15:59;99236.16;;;40.42;22.87
7668;BME280;3876;42.204;24.686;2022-07-23T13:18:27;99234.28;;;40.59;22.60
7668;BME280;3876;42.204;24.686;2022-07-23T13:20:54;99238.84;;;40.75;22.20
7668;BME280;3876;42.204;24.686;2022-07-23T13:23:22;99241.78;;;40.90;22.41